sensor_id;sensor_type;location;lat;lon;timestamp;temperature;humidity
11454;DHT22;5783;55.174;61.310;2022-08-21T00:00:44;24.30;63.60
11454;DHT22;5783;55.174;61.310;2022-08-21T00:03:15;24.30;63.60
11454;DHT22;5783;55.174;61.310;2022-08-21T00:05:46;24.20;63.50
11454;DHT22;5783;55.174;61.310;2022-08-21T00:08:36;24.20;63.50
11454;DHT22;5783;55.174;61.310;2022-08-21T00:11:05;24.20;63.60
11454;DHT22;5783;55.174;61.310;2022-08-21T00:13:36;24.20;63.60
11454;DHT22;5783;55.174;61.310;2022-08-21T00:16:05;24.20;63.70
11454;DHT22;5783;55.174;61.310;2022-08-21T00:18:34;24.20;63.70
11454;DHT22;5783;55.174;61.310;2022-08-21T00:21:04;24.20;63.60
11454;DHT22;5783;55.174;61.310;2022-08-21T00:23:34;24.20;63.50
11454;DHT22;5783;55.174;61.310;2022-08-21T00:26:03;24.20;63.50
11454;DHT22;5783;55.174;61.310;2022-08-21T00:28:33;24.20;63.40
11454;DHT22;5783;55.174;61.310;2022-08-21T00:31:02;24.20;63.40
11454;DHT22;5783;55.174;61.310;2022-08-21T00:33:31;24.20;63.40
11454;DHT22;5783;55.174;61.310;2022-08-21T00:36:01;24.20;63.40
11454;DHT22;5783;55.174;61.310;2022-08-21T00:38:30;24.20;63.50
11454;DHT22;5783;55.174;61.310;2022-08-21T00:41:02;24.20;63.50
11454;DHT22;5783;55.174;61.310;2022-08-21T00:43:34;24.20;63.50
11454;DHT22;5783;55.174;61.310;2022-08-21T00:46:04;24.10;63.40
11454;DHT22;5783;55.174;61.310;2022-08-21T00:48:34;24.10;63.40
11454;DHT22;5783;55.174;61.310;2022-08-21T00:51:40;24.10;63.30
11454;DHT22;5783;55.174;61.310;2022-08-21T00:53:56;24.10;63.40
11454;DHT22;5783;55.174;61.310;2022-08-21T00:56:26;24.10;63.20
11454;DHT22;5783;55.174;61.310;2022-08-21T00:58:57;24.10;63.30
11454;DHT22;5783;55.174;61.310;2022-08-21T01:01:26;24.00;63.20
11454;DHT22;5783;55.174;61.310;2022-08-21T01:03:55;24.00;63.20
11454;DHT22;5783;55.174;61.310;2022-08-21T01:06:25;24.00;63.30
11454;DHT22;5783;55.174;61.310;2022-08-21T01:08:54;24.00;63.10
11454;DHT22;5783;55.174;61.310;2022-08-21T01:11:25;24.00;63.00
11454;DHT22;5783;55.174;61.310;2022-08-21T01:13:55;24.00;62.90
11454;DHT22;5783;55.174;61.310;2022-08-21T01:16:24;24.00;62.80
11454;DHT22;5783;55.174;61.310;2022-08-21T01:18:53;23.90;62.60
11454;DHT22;5783;55.174;61.310;2022-08-21T01:21:25;23.90;62.70
11454;DHT22;5783;55.174;61.310;2022-08-21T01:23:56;23.90;62.70
11454;DHT22;5783;55.174;61.310;2022-08-21T01:26:28;23.90;62.70
11454;DHT22;5783;55.174;61.310;2022-08-21T01:32:10;23.90;62.90
11454;DHT22;5783;55.174;61.310;2022-08-21T01:34:41;23.90;62.90
11454;DHT22;5783;55.174;61.310;2022-08-21T01:37:11;23.90;63.00
11454;DHT22;5783;55.174;61.310;2022-08-21T01:39:41;23.90;63.10
11454;DHT22;5783;55.174;61.310;2022-08-21T01:42:11;23.90;63.00
11454;DHT22;5783;55.174;61.310;2022-08-21T01:44:40;23.90;63.00
11454;DHT22;5783;55.174;61.310;2022-08-21T01:47:11;23.90;63.00
11454;DHT22;5783;55.174;61.310;2022-08-21T01:49:42;23.90;62.90
11454;DHT22;5783;55.174;61.310;2022-08-21T01:52:32;23.90;62.80
11454;DHT22;5783;55.174;61.310;2022-08-21T01:55:22;23.90;62.80
11454;DHT22;5783;55.174;61.310;2022-08-21T01:57:51;23.90;62.80
11454;DHT22;5783;55.174;61.310;2022-08-21T02:00:22;23.90;62.90
11454;DHT22;5783;55.174;61.310;2022-08-21T02:02:52;23.90;62.80
11454;DHT22;5783;55.174;61.310;2022-08-21T02:05:22;23.90;62.60
11454;DHT22;5783;55.174;61.310;2022-08-21T02:07:53;23.90;62.50
11454;DHT22;5783;55.174;61.310;2022-08-21T02:10:26;23.90;62.60
11454;DHT22;5783;55.174;61.310;2022-08-21T02:12:55;23.90;62.40
11454;DHT22;5783;55.174;61.310;2022-08-21T02:15:29;23.90;62.30
11454;DHT22;5783;55.174;61.310;2022-08-21T02:18:00;23.90;62.20
11454;DHT22;5783;55.174;61.310;2022-08-21T02:20:33;23.90;62.20
11454;DHT22;5783;55.174;61.310;2022-08-21T02:23:03;23.90;62.10
11454;DHT22;5783;55.174;61.310;2022-08-21T02:25:32;23.90;62.00
11454;DHT22;5783;55.174;61.310;2022-08-21T02:28:21;23.80;62.00
11454;DHT22;5783;55.174;61.310;2022-08-21T02:30:50;23.80;61.90
11454;DHT22;5783;55.174;61.310;2022-08-21T02:33:19;23.80;61.80
11454;DHT22;5783;55.174;61.310;2022-08-21T02:35:50;23.80;61.90
11454;DHT22;5783;55.174;61.310;2022-08-21T02:38:22;23.80;61.90
11454;DHT22;5783;55.174;61.310;2022-08-21T02:40:52;23.80;61.80
11454;DHT22;5783;55.174;61.310;2022-08-21T02:43:23;23.80;61.70
11454;DHT22;5783;55.174;61.310;2022-08-21T02:45:54;23.80;61.80
11454;DHT22;5783;55.174;61.310;2022-08-21T02:48:28;23.80;61.70
11454;DHT22;5783;55.174;61.310;2022-08-21T02:53:29;23.80;61.70
11454;DHT22;5783;55.174;61.310;2022-08-21T02:56:01;23.80;61.70
11454;DHT22;5783;55.174;61.310;2022-08-21T02:58:34;23.80;61.80
11454;DHT22;5783;55.174;61.310;2022-08-21T03:01:04;23.90;61.80
11454;DHT22;5783;55.174;61.310;2022-08-21T03:03:35;23.90;61.80
11454;DHT22;5783;55.174;61.310;2022-08-21T03:06:05;23.90;61.80
11454;DHT22;5783;55.174;61.310;2022-08-21T03:08:36;23.90;61.70
11454;DHT22;5783;55.174;61.310;2022-08-21T03:11:05;23.90;61.70
11454;DHT22;5783;55.174;61.310;2022-08-21T03:13:35;23.90;61.50
11454;DHT22;5783;55.174;61.310;2022-08-21T03:16:05;23.90;61.40
11454;DHT22;5783;55.174;61.310;2022-08-21T03:18:35;24.00;61.30
11454;DHT22;5783;55.174;61.310;2022-08-21T03:21:04;23.90;61.30
11454;DHT22;5783;55.174;61.310;2022-08-21T03:23:33;23.90;61.20
11454;DHT22;5783;55.174;61.310;2022-08-21T03:26:03;23.90;61.40
11454;DHT22;5783;55.174;61.310;2022-08-21T03:28:32;23.90;61.10
11454;DHT22;5783;55.174;61.310;2022-08-21T03:31:01;23.90;61.00
11454;DHT22;5783;55.174;61.310;2022-08-21T03:33:31;23.90;60.90
11454;DHT22;5783;55.174;61.310;2022-08-21T03:38:51;23.90;60.80
11454;DHT22;5783;55.174;61.310;2022-08-21T03:41:20;23.90;60.70
11454;DHT22;5783;55.174;61.310;2022-08-21T03:43:49;23.90;60.70
11454;DHT22;5783;55.174;61.310;2022-08-21T03:46:18;23.90;60.60
11454;DHT22;5783;55.174;61.310;2022-08-21T03:48:47;23.90;60.50
11454;DHT22;5783;55.174;61.310;2022-08-21T03:51:16;23.90;60.40
11454;DHT22;5783;55.174;61.310;2022-08-21T03:53:45;23.90;60.30
11454;DHT22;5783;55.174;61.310;2022-08-21T03:56:14;23.90;60.20
11454;DHT22;5783;55.174;61.310;2022-08-21T03:58:44;23.90;60.10
11454;DHT22;5783;55.174;61.310;2022-08-21T04:01:14;23.90;60.00
11454;DHT22;5783;55.174;61.310;2022-08-21T04:03:43;23.90;60.00
11454;DHT22;5783;55.174;61.310;2022-08-21T04:06:12;23.90;60.00
11454;DHT22;5783;55.174;61.310;2022-08-21T04:08:42;23.90;59.90
11454;DHT22;5783;55.174;61.310;2022-08-21T04:11:11;23.90;59.80
11454;DHT22;5783;55.174;61.310;2022-08-21T04:13:41;23.90;59.70
11454;DHT22;5783;55.174;61.310;2022-08-21T04:16:10;23.90;59.70
11454;DHT22;5783;55.174;61.310;2022-08-21T04:18:40;23.90;59.70
11454;DHT22;5783;55.174;61.310;2022-08-21T04:21:11;23.90;59.70
11454;DHT22;5783;55.174;61.310;2022-08-21T04:23:40;23.90;59.70
11454;DHT22;5783;55.174;61.310;2022-08-21T04:26:09;24.00;59.60
11454;DHT22;5783;55.174;61.310;2022-08-21T04:28:38;24.00;59.50
11454;DHT22;5783;55.174;61.310;2022-08-21T04:31:08;24.00;59.40
11454;DHT22;5783;55.174;61.310;2022-08-21T04:33:37;24.00;59.40
11454;DHT22;5783;55.174;61.310;2022-08-21T04:36:07;24.00;59.30
11454;DHT22;5783;55.174;61.310;2022-08-21T04:38:36;24.00;59.20
11454;DHT22;5783;55.174;61.310;2022-08-21T04:41:06;24.00;56.70
11454;DHT22;5783;55.174;61.310;2022-08-21T04:43:35;23.90;56.40
11454;DHT22;5783;55.174;61.310;2022-08-21T04:46:04;23.80;56.40
11454;DHT22;5783;55.174;61.310;2022-08-21T04:48:34;23.80;56.60
11454;DHT22;5783;55.174;61.310;2022-08-21T04:57:05;23.70;56.10
11454;DHT22;5783;55.174;61.310;2022-08-21T04:59:36;23.60;56.30
11454;DHT22;5783;55.174;61.310;2022-08-21T05:02:07;23.70;56.60
11454;DHT22;5783;55.174;61.310;2022-08-21T05:04:39;23.70;57.40
11454;DHT22;5783;55.174;61.310;2022-08-21T05:07:12;23.80;55.90
11454;DHT22;5783;55.174;61.310;2022-08-21T05:09:41;23.90;54.60
11454;DHT22;5783;55.174;61.310;2022-08-21T05:12:11;24.10;53.60
11454;DHT22;5783;55.174;61.310;2022-08-21T05:14:41;24.10;53.50
11454;DHT22;5783;55.174;61.310;2022-08-21T05:17:10;24.20;52.90
11454;DHT22;5783;55.174;61.310;2022-08-21T05:19:39;24.20;51.50
11454;DHT22;5783;55.174;61.310;2022-08-21T05:22:08;24.20;51.60
11454;DHT22;5783;55.174;61.310;2022-08-21T05:24:37;24.20;51.00
11454;DHT22;5783;55.174;61.310;2022-08-21T05:27:06;24.20;51.00
11454;DHT22;5783;55.174;61.310;2022-08-21T05:29:35;24.20;50.80
11454;DHT22;5783;55.174;61.310;2022-08-21T05:32:24;24.30;50.20
11454;DHT22;5783;55.174;61.310;2022-08-21T05:34:54;24.20;50.00
11454;DHT22;5783;55.174;61.310;2022-08-21T05:37:24;24.20;49.90
11454;DHT22;5783;55.174;61.310;2022-08-21T05:39:54;24.20;49.50
11454;DHT22;5783;55.174;61.310;2022-08-21T05:42:23;24.30;49.80
11454;DHT22;5783;55.174;61.310;2022-08-21T05:44:52;24.30;49.70
11454;DHT22;5783;55.174;61.310;2022-08-21T05:47:22;24.30;48.80
11454;DHT22;5783;55.174;61.310;2022-08-21T05:49:51;24.30;48.70
11454;DHT22;5783;55.174;61.310;2022-08-21T05:52:21;24.30;48.60
11454;DHT22;5783;55.174;61.310;2022-08-21T05:54:50;24.30;48.30
11454;DHT22;5783;55.174;61.310;2022-08-21T05:57:21;24.30;48.50
11454;DHT22;5783;55.174;61.310;2022-08-21T05:59:51;24.30;47.80
11454;DHT22;5783;55.174;61.310;2022-08-21T06:02:21;24.30;47.10
11454;DHT22;5783;55.174;61.310;2022-08-21T06:04:50;24.30;47.20
11454;DHT22;5783;55.174;61.310;2022-08-21T06:07:19;24.30;47.20
11454;DHT22;5783;55.174;61.310;2022-08-21T06:09:48;24.30;47.50
11454;DHT22;5783;55.174;61.310;2022-08-21T06:12:17;24.30;47.40
11454;DHT22;5783;55.174;61.310;2022-08-21T06:14:46;24.30;47.30
11454;DHT22;5783;55.174;61.310;2022-08-21T06:17:17;24.30;46.20
11454;DHT22;5783;55.174;61.310;2022-08-21T06:19:50;24.30;47.40
11454;DHT22;5783;55.174;61.310;2022-08-21T06:22:19;24.30;47.00
11454;DHT22;5783;55.174;61.310;2022-08-21T06:24:49;24.30;47.40
11454;DHT22;5783;55.174;61.310;2022-08-21T06:27:18;24.30;45.80
11454;DHT22;5783;55.174;61.310;2022-08-21T06:29:47;24.40;46.90
11454;DHT22;5783;55.174;61.310;2022-08-21T06:32:16;24.40;46.70
11454;DHT22;5783;55.174;61.310;2022-08-21T06:34:45;24.40;45.00
11454;DHT22;5783;55.174;61.310;2022-08-21T06:37:14;24.40;46.20
11454;DHT22;5783;55.174;61.310;2022-08-21T06:39:43;24.40;45.50
11454;DHT22;5783;55.174;61.310;2022-08-21T06:42:32;24.40;45.40
11454;DHT22;5783;55.174;61.310;2022-08-21T06:45:01;24.40;45.90
11454;DHT22;5783;55.174;61.310;2022-08-21T06:47:31;24.40;44.70
11454;DHT22;5783;55.174;61.310;2022-08-21T06:50:01;24.40;43.70
11454;DHT22;5783;55.174;61.310;2022-08-21T06:52:34;24.40;42.80
11454;DHT22;5783;55.174;61.310;2022-08-21T06:55:23;24.40;42.30
11454;DHT22;5783;55.174;61.310;2022-08-21T06:57:52;24.40;41.90
11454;DHT22;5783;55.174;61.310;2022-08-21T07:00:21;24.40;41.90
11454;DHT22;5783;55.174;61.310;2022-08-21T07:02:51;24.40;41.80
11454;DHT22;5783;55.174;61.310;2022-08-21T07:05:20;24.40;42.60
11454;DHT22;5783;55.174;61.310;2022-08-21T07:07:50;24.40;42.30
11454;DHT22;5783;55.174;61.310;2022-08-21T07:10:19;24.40;42.10
11454;DHT22;5783;55.174;61.310;2022-08-21T07:12:49;24.40;42.90
11454;DHT22;5783;55.174;61.310;2022-08-21T07:17:53;24.40;40.90
11454;DHT22;5783;55.174;61.310;2022-08-21T07:20:23;24.40;41.30
11454;DHT22;5783;55.174;61.310;2022-08-21T07:22:52;24.40;41.60
11454;DHT22;5783;55.174;61.310;2022-08-21T07:25:24;24.40;42.30
11454;DHT22;5783;55.174;61.310;2022-08-21T07:27:53;24.40;41.30
11454;DHT22;5783;55.174;61.310;2022-08-21T07:30:23;24.40;42.10
11454;DHT22;5783;55.174;61.310;2022-08-21T07:32:52;24.40;42.70
11454;DHT22;5783;55.174;61.310;2022-08-21T07:35:23;24.40;42.40
11454;DHT22;5783;55.174;61.310;2022-08-21T07:37:53;24.40;42.10
11454;DHT22;5783;55.174;61.310;2022-08-21T07:40:23;24.50;41.40
11454;DHT22;5783;55.174;61.310;2022-08-21T07:42:52;24.50;41.80
11454;DHT22;5783;55.174;61.310;2022-08-21T07:45:22;24.40;41.70
11454;DHT22;5783;55.174;61.310;2022-08-21T07:47:53;24.40;41.10
11454;DHT22;5783;55.174;61.310;2022-08-21T07:50:22;24.40;40.50
11454;DHT22;5783;55.174;61.310;2022-08-21T07:52:51;24.40;41.50
11454;DHT22;5783;55.174;61.310;2022-08-21T07:55:21;24.40;42.10
11454;DHT22;5783;55.174;61.310;2022-08-21T07:57:51;24.50;42.90
11454;DHT22;5783;55.174;61.310;2022-08-21T08:00:23;24.50;41.50
11454;DHT22;5783;55.174;61.310;2022-08-21T08:02:53;24.50;41.60
11454;DHT22;5783;55.174;61.310;2022-08-21T08:05:24;24.40;41.90
11454;DHT22;5783;55.174;61.310;2022-08-21T08:07:55;24.50;41.90
11454;DHT22;5783;55.174;61.310;2022-08-21T08:10:25;24.50;43.20
11454;DHT22;5783;55.174;61.310;2022-08-21T08:12:54;24.50;42.30
11454;DHT22;5783;55.174;61.310;2022-08-21T08:15:26;24.50;42.50
11454;DHT22;5783;55.174;61.310;2022-08-21T08:17:56;24.50;42.30
11454;DHT22;5783;55.174;61.310;2022-08-21T08:20:25;24.50;42.60
11454;DHT22;5783;55.174;61.310;2022-08-21T08:22:56;24.50;41.90
11454;DHT22;5783;55.174;61.310;2022-08-21T08:25:26;24.50;41.70
11454;DHT22;5783;55.174;61.310;2022-08-21T08:27:55;24.60;40.70
11454;DHT22;5783;55.174;61.310;2022-08-21T08:30:24;24.60;41.60
11454;DHT22;5783;55.174;61.310;2022-08-21T08:32:54;24.60;42.50
11454;DHT22;5783;55.174;61.310;2022-08-21T08:35:24;24.60;42.20
11454;DHT22;5783;55.174;61.310;2022-08-21T08:37:55;24.60;42.20
11454;DHT22;5783;55.174;61.310;2022-08-21T08:40:45;24.60;41.40
11454;DHT22;5783;55.174;61.310;2022-08-21T08:43:15;24.60;39.70
11454;DHT22;5783;55.174;61.310;2022-08-21T08:45:47;24.60;40.10
11454;DHT22;5783;55.174;61.310;2022-08-21T08:56:34;24.60;39.80
11454;DHT22;5783;55.174;61.310;2022-08-21T08:59:26;24.60;38.60
11454;DHT22;5783;55.174;61.310;2022-08-21T09:01:54;24.60;39.50
11454;DHT22;5783;55.174;61.310;2022-08-21T09:04:26;24.60;41.70
11454;DHT22;5783;55.174;61.310;2022-08-21T09:13:18;24.60;39.10
11454;DHT22;5783;55.174;61.310;2022-08-21T09:19:01;24.60;39.10
11454;DHT22;5783;55.174;61.310;2022-08-21T09:22:23;24.60;39.40
11454;DHT22;5783;55.174;61.310;2022-08-21T09:29:42;24.70;39.90
11454;DHT22;5783;55.174;61.310;2022-08-21T09:35:20;24.70;40.80
11454;DHT22;5783;55.174;61.310;2022-08-21T09:38:10;24.70;48.60
11454;DHT22;5783;55.174;61.310;2022-08-21T09:40:44;24.80;42.30
11454;DHT22;5783;55.174;61.310;2022-08-21T09:46:25;24.80;43.50
11454;DHT22;5783;55.174;61.310;2022-08-21T09:48:57;24.80;44.30
11454;DHT22;5783;55.174;61.310;2022-08-21T09:51:30;24.90;45.70
11454;DHT22;5783;55.174;61.310;2022-08-21T10:00:25;24.90;45.30
11454;DHT22;5783;55.174;61.310;2022-08-21T10:02:50;24.90;45.80
11454;DHT22;5783;55.174;61.310;2022-08-21T10:05:22;25.00;45.30
11454;DHT22;5783;55.174;61.310;2022-08-21T10:07:52;25.00;44.60
11454;DHT22;5783;55.174;61.310;2022-08-21T10:10:24;25.10;42.90
11454;DHT22;5783;55.174;61.310;2022-08-21T10:13:47;25.10;42.30
11454;DHT22;5783;55.174;61.310;2022-08-21T10:30:52;25.10;38.60
11454;DHT22;5783;55.174;61.310;2022-08-21T11:03:39;25.40;40.80
11454;DHT22;5783;55.174;61.310;2022-08-21T11:15:01;25.60;38.40
11454;DHT22;5783;55.174;61.310;2022-08-21T11:17:54;25.70;38.70
11454;DHT22;5783;55.174;61.310;2022-08-21T11:29:16;25.80;36.60
11454;DHT22;5783;55.174;61.310;2022-08-21T11:41:29;25.90;36.10
11454;DHT22;5783;55.174;61.310;2022-08-21T11:59:08;25.80;39.70
11454;DHT22;5783;55.174;61.310;2022-08-21T12:01:25;25.70;43.70
11454;DHT22;5783;55.174;61.310;2022-08-21T12:21:52;25.40;62.90
11454;DHT22;5783;55.174;61.310;2022-08-21T12:30:58;25.40;62.10
11454;DHT22;5783;55.174;61.310;2022-08-21T12:39:13;25.40;59.40
11454;DHT22;5783;55.174;61.310;2022-08-21T12:42:17;25.40;57.80
11454;DHT22;5783;55.174;61.310;2022-08-21T12:44:53;25.40;55.80
11454;DHT22;5783;55.174;61.310;2022-08-21T13:02:00;25.30;56.20
11454;DHT22;5783;55.174;61.310;2022-08-21T13:04:50;25.30;55.10
11454;DHT22;5783;55.174;61.310;2022-08-21T13:07:58;25.30;54.70
11454;DHT22;5783;55.174;61.310;2022-08-21T13:12:27;25.30;52.80
11454;DHT22;5783;55.174;61.310;2022-08-21T13:15:00;25.30;49.00
11454;DHT22;5783;55.174;61.310;2022-08-21T13:17:34;25.30;47.20
11454;DHT22;5783;55.174;61.310;2022-08-21T13:22:54;25.30;48.90
11454;DHT22;5783;55.174;61.310;2022-08-21T13:25:44;25.20;50.20
11454;DHT22;5783;55.174;61.310;2022-08-21T13:28:14;25.20;50.20
11454;DHT22;5783;55.174;61.310;2022-08-21T13:31:05;25.20;50.40
11454;DHT22;5783;55.174;61.310;2022-08-21T13:33:35;25.20;49.90
11454;DHT22;5783;55.174;61.310;2022-08-21T13:36:09;25.20;50.10
11454;DHT22;5783;55.174;61.310;2022-08-21T13:38:40;25.10;50.50
11454;DHT22;5783;55.174;61.310;2022-08-21T13:41:31;25.10;50.10
11454;DHT22;5783;55.174;61.310;2022-08-21T13:44:03;25.10;49.30
11454;DHT22;5783;55.174;61.310;2022-08-21T13:46:34;25.10;49.80
11454;DHT22;5783;55.174;61.310;2022-08-21T13:49:05;25.10;49.70
11454;DHT22;5783;55.174;61.310;2022-08-21T13:51:35;25.10;49.30
11454;DHT22;5783;55.174;61.310;2022-08-21T13:54:25;25.10;48.80
11454;DHT22;5783;55.174;61.310;2022-08-21T13:56:55;25.10;49.10
11454;DHT22;5783;55.174;61.310;2022-08-21T13:59:44;25.10;48.90
11454;DHT22;5783;55.174;61.310;2022-08-21T14:05:04;25.10;49.10
11454;DHT22;5783;55.174;61.310;2022-08-21T14:07:36;25.10;48.60
11454;DHT22;5783;55.174;61.310;2022-08-21T14:12:59;25.10;48.60
11454;DHT22;5783;55.174;61.310;2022-08-21T14:15:31;25.10;48.70
11454;DHT22;5783;55.174;61.310;2022-08-21T14:18:20;25.10;48.80
11454;DHT22;5783;55.174;61.310;2022-08-21T14:20:51;25.10;49.00
11454;DHT22;5783;55.174;61.310;2022-08-21T14:23:40;25.10;48.90
11454;DHT22;5783;55.174;61.310;2022-08-21T14:26:10;25.10;49.00
11454;DHT22;5783;55.174;61.310;2022-08-21T14:28:41;25.10;49.00
11454;DHT22;5783;55.174;61.310;2022-08-21T14:31:30;25.10;49.10
11454;DHT22;5783;55.174;61.310;2022-08-21T14:34:01;25.10;49.10
11454;DHT22;5783;55.174;61.310;2022-08-21T14:36:30;25.10;49.30
11454;DHT22;5783;55.174;61.310;2022-08-21T14:39:00;25.20;49.70
11454;DHT22;5783;55.174;61.310;2022-08-21T14:41:29;25.20;50.00
11454;DHT22;5783;55.174;61.310;2022-08-21T14:43:58;25.20;49.90
11454;DHT22;5783;55.174;61.310;2022-08-21T14:46:29;25.20;49.40
11454;DHT22;5783;55.174;61.310;2022-08-21T14:48:59;25.20;49.50
11454;DHT22;5783;55.174;61.310;2022-08-21T14:54:18;25.20;50.50
11454;DHT22;5783;55.174;61.310;2022-08-21T14:56:47;25.20;50.30
11454;DHT22;5783;55.174;61.310;2022-08-21T14:59:17;25.20;51.10
11454;DHT22;5783;55.174;61.310;2022-08-21T15:01:47;25.20;51.30
11454;DHT22;5783;55.174;61.310;2022-08-21T15:04:16;25.20;51.20
11454;DHT22;5783;55.174;61.310;2022-08-21T15:06:46;25.10;51.40
11454;DHT22;5783;55.174;61.310;2022-08-21T15:09:15;25.10;51.60
11454;DHT22;5783;55.174;61.310;2022-08-21T15:11:44;25.10;51.70
11454;DHT22;5783;55.174;61.310;2022-08-21T15:14:34;25.10;51.80
11454;DHT22;5783;55.174;61.310;2022-08-21T15:17:06;25.10;51.70
11454;DHT22;5783;55.174;61.310;2022-08-21T15:19:35;25.00;51.30
11454;DHT22;5783;55.174;61.310;2022-08-21T15:22:05;25.00;51.20
11454;DHT22;5783;55.174;61.310;2022-08-21T15:24:34;25.00;51.10
11454;DHT22;5783;55.174;61.310;2022-08-21T15:27:04;25.00;51.10
11454;DHT22;5783;55.174;61.310;2022-08-21T15:29:35;25.00;50.70
11454;DHT22;5783;55.174;61.310;2022-08-21T15:32:37;25.00;50.70
11454;DHT22;5783;55.174;61.310;2022-08-21T15:34:36;25.00;50.70
11454;DHT22;5783;55.174;61.310;2022-08-21T15:37:08;25.00;51.00
11454;DHT22;5783;55.174;61.310;2022-08-21T15:39:38;25.00;51.10
11454;DHT22;5783;55.174;61.310;2022-08-21T15:42:08;25.00;51.30
11454;DHT22;5783;55.174;61.310;2022-08-21T15:44:40;25.00;51.50
11454;DHT22;5783;55.174;61.310;2022-08-21T15:47:31;25.00;51.40
11454;DHT22;5783;55.174;61.310;2022-08-21T15:50:01;25.00;51.50
11454;DHT22;5783;55.174;61.310;2022-08-21T15:52:31;25.00;51.70
11454;DHT22;5783;55.174;61.310;2022-08-21T15:55:37;25.00;51.90
11454;DHT22;5783;55.174;61.310;2022-08-21T15:57:35;25.00;51.90
11454;DHT22;5783;55.174;61.310;2022-08-21T16:00:24;25.00;52.10
11454;DHT22;5783;55.174;61.310;2022-08-21T16:02:57;25.00;52.30
11454;DHT22;5783;55.174;61.310;2022-08-21T16:05:46;25.00;51.20
11454;DHT22;5783;55.174;61.310;2022-08-21T16:08:34;24.90;51.50
11454;DHT22;5783;55.174;61.310;2022-08-21T16:11:04;24.90;53.10
11454;DHT22;5783;55.174;61.310;2022-08-21T16:16:24;24.90;53.40
11454;DHT22;5783;55.174;61.310;2022-08-21T16:18:53;24.90;53.50
11454;DHT22;5783;55.174;61.310;2022-08-21T16:21:22;24.90;53.50
11454;DHT22;5783;55.174;61.310;2022-08-21T16:23:51;24.90;53.60
11454;DHT22;5783;55.174;61.310;2022-08-21T16:26:21;24.90;53.60
11454;DHT22;5783;55.174;61.310;2022-08-21T16:28:52;24.90;53.60
11454;DHT22;5783;55.174;61.310;2022-08-21T16:31:24;24.90;53.70
11454;DHT22;5783;55.174;61.310;2022-08-21T16:33:55;24.90;53.90
11454;DHT22;5783;55.174;61.310;2022-08-21T16:36:25;24.90;53.80
11454;DHT22;5783;55.174;61.310;2022-08-21T16:38:56;24.90;53.90
11454;DHT22;5783;55.174;61.310;2022-08-21T16:41:28;24.90;54.00
11454;DHT22;5783;55.174;61.310;2022-08-21T16:43:57;24.90;54.20
11454;DHT22;5783;55.174;61.310;2022-08-21T16:46:29;24.90;54.20
11454;DHT22;5783;55.174;61.310;2022-08-21T16:48:59;24.90;54.40
11454;DHT22;5783;55.174;61.310;2022-08-21T16:51:28;24.90;54.50
11454;DHT22;5783;55.174;61.310;2022-08-21T16:53:58;24.90;54.50
11454;DHT22;5783;55.174;61.310;2022-08-21T16:56:29;24.90;54.60
11454;DHT22;5783;55.174;61.310;2022-08-21T16:58:58;24.80;54.80
11454;DHT22;5783;55.174;61.310;2022-08-21T17:01:30;24.80;54.80
11454;DHT22;5783;55.174;61.310;2022-08-21T17:04:00;24.80;54.60
11454;DHT22;5783;55.174;61.310;2022-08-21T17:06:29;24.80;54.40
11454;DHT22;5783;55.174;61.310;2022-08-21T17:08:59;24.80;54.80
11454;DHT22;5783;55.174;61.310;2022-08-21T17:11:47;24.80;54.80
11454;DHT22;5783;55.174;61.310;2022-08-21T17:14:36;24.80;54.60
11454;DHT22;5783;55.174;61.310;2022-08-21T17:17:07;24.80;55.60
11454;DHT22;5783;55.174;61.310;2022-08-21T17:19:37;24.80;55.40
11454;DHT22;5783;55.174;61.310;2022-08-21T17:22:06;24.70;55.40
11454;DHT22;5783;55.174;61.310;2022-08-21T17:24:37;24.70;55.40
11454;DHT22;5783;55.174;61.310;2022-08-21T17:27:06;24.70;55.50
11454;DHT22;5783;55.174;61.310;2022-08-21T17:29:39;24.70;55.50
11454;DHT22;5783;55.174;61.310;2022-08-21T17:32:10;24.70;55.30
11454;DHT22;5783;55.174;61.310;2022-08-21T17:34:40;24.70;55.30
11454;DHT22;5783;55.174;61.310;2022-08-21T17:37:09;24.70;56.00
11454;DHT22;5783;55.174;61.310;2022-08-21T17:39:38;24.70;56.30
11454;DHT22;5783;55.174;61.310;2022-08-21T17:42:27;24.70;56.20
11454;DHT22;5783;55.174;61.310;2022-08-21T17:44:57;24.70;56.20
11454;DHT22;5783;55.174;61.310;2022-08-21T17:47:26;24.70;56.30
11454;DHT22;5783;55.174;61.310;2022-08-21T17:49:55;24.70;56.50
11454;DHT22;5783;55.174;61.310;2022-08-21T17:52:24;24.70;56.60
11454;DHT22;5783;55.174;61.310;2022-08-21T17:54:54;24.70;56.60
11454;DHT22;5783;55.174;61.310;2022-08-21T17:57:24;24.70;56.50
11454;DHT22;5783;55.174;61.310;2022-08-21T17:59:55;24.70;56.70
11454;DHT22;5783;55.174;61.310;2022-08-21T18:02:24;24.70;56.80
11454;DHT22;5783;55.174;61.310;2022-08-21T18:04:53;24.70;57.10
11454;DHT22;5783;55.174;61.310;2022-08-21T18:07:23;24.60;57.00
11454;DHT22;5783;55.174;61.310;2022-08-21T18:09:52;24.70;57.20
11454;DHT22;5783;55.174;61.310;2022-08-21T18:12:21;24.70;57.30
11454;DHT22;5783;55.174;61.310;2022-08-21T18:14:50;24.60;57.40
11454;DHT22;5783;55.174;61.310;2022-08-21T18:17:21;24.60;57.00
11454;DHT22;5783;55.174;61.310;2022-08-21T18:19:50;24.60;56.90
11454;DHT22;5783;55.174;61.310;2022-08-21T18:22:19;24.60;57.10
11454;DHT22;5783;55.174;61.310;2022-08-21T18:24:48;24.60;57.20
11454;DHT22;5783;55.174;61.310;2022-08-21T18:27:18;24.60;57.20
11454;DHT22;5783;55.174;61.310;2022-08-21T18:29:49;24.50;57.30
11454;DHT22;5783;55.174;61.310;2022-08-21T18:32:21;24.50;57.10
11454;DHT22;5783;55.174;61.310;2022-08-21T18:34:51;24.50;57.10
11454;DHT22;5783;55.174;61.310;2022-08-21T18:37:22;24.50;57.70
11454;DHT22;5783;55.174;61.310;2022-08-21T18:39:51;24.50;57.60
11454;DHT22;5783;55.174;61.310;2022-08-21T18:42:21;24.40;57.80
11454;DHT22;5783;55.174;61.310;2022-08-21T18:44:52;24.40;58.00
11454;DHT22;5783;55.174;61.310;2022-08-21T18:47:25;24.40;58.60
11454;DHT22;5783;55.174;61.310;2022-08-21T18:50:18;24.40;59.00
11454;DHT22;5783;55.174;61.310;2022-08-21T18:52:46;24.40;60.10
11454;DHT22;5783;55.174;61.310;2022-08-21T18:55:17;24.40;60.20
11454;DHT22;5783;55.174;61.310;2022-08-21T18:57:46;24.40;59.80
11454;DHT22;5783;55.174;61.310;2022-08-21T19:00:19;24.40;59.90
11454;DHT22;5783;55.174;61.310;2022-08-21T19:02:49;24.40;60.00
11454;DHT22;5783;55.174;61.310;2022-08-21T19:05:19;24.50;59.80
11454;DHT22;5783;55.174;61.310;2022-08-21T19:07:48;24.40;59.80
11454;DHT22;5783;55.174;61.310;2022-08-21T19:10:18;24.40;59.90
11454;DHT22;5783;55.174;61.310;2022-08-21T19:12:48;24.40;60.10
11454;DHT22;5783;55.174;61.310;2022-08-21T19:15:20;24.40;60.00
11454;DHT22;5783;55.174;61.310;2022-08-21T19:17:51;24.40;60.30
11454;DHT22;5783;55.174;61.310;2022-08-21T19:20:41;24.40;61.40